Terminal Aerodrome Forecast
Issued by NWS Memphis, TN

Home | Current Version | Previous Version | Text Only | Print | Product List | Glossary On
Versions: 1 2 3 4 5 6 7 8 9 10 11 12 13 14 15 16 17
000
FTUS44 KMEG 220206 AAA
TAFMKL
TAF AMD
KMKL 220206Z 2202/2224 10004KT P6SM -SHRA OVC020
     FM220400 00000KT 4SM BR OVC007
     FM220800 VRB03KT 3SM BR OVC005
     FM221700 08004KT P6SM SCT005 OVC010
     FM222200 20003KT P6SM OVC050=

USA.gov is the U.S. government's official web portal to all federal, state and local government web resources and services.